Uacc Mansder — V7TP2 — position and weather

sailwx.info

Track history (hours):
 
Tides and Currents Weather Stations Pressure Air Temp Water Temp Dewpoint Dewpoint Depression Visibility Wind Speed Wind Dir Waves Ship Positions

Uacc Mansder

Last reported at 2017-Oct-22 08:56 UTC. Time now 2017-Oct-22 15:45 UTC.
Position N 39°45' E 025°45'.

Length 183 m; draft 11 m.

Type: Ship (hazmat cat B). MMSI: 538003850.

Date/timePositionNaut miles runAvg speedWind from/ knotsBaromVisibWave heightAir tempDewpointWater temp
2017-Oct-22 08:56N 39°45' E 025°45'512.5
2017-Oct-22 08:30N 39°50' E 025°46'1013.0
2017-Oct-22 07:45N 39°58' E 025°54'4711.1
2017-Oct-22 03:31N 40°26' E 026°44'5 7.9
2017-Oct-22 02:53N 40°28' E 026°50'912.0
2017-Oct-22 02:09N 40°32' E 027°00'212.1
2017-Oct-22 02:00N 40°33' E 027°02'6612.2
2017-Oct-21 20:35N 40°51' E 028°26'212.2
2017-Oct-21 20:25N 40°52' E 028°29'512.1
2017-Oct-21 19:59N 40°53' E 028°35'1212.3
2017-Oct-21 19:00N 40°55' E 028°51'3 6.1
2017-Oct-21 18:26N 40°57' E 028°55'2 3.9
2017-Oct-21 18:00N 40°58' E 028°57'31 1.8
2017-Oct-21 00:48N 41°29' E 028°53'0 0.3
2017-Oct-21 00:29N 41°28' E 028°53'0 0.3
2017-Oct-21 00:00N 41°28' E 028°53'0 0.4
2017-Oct-20 23:30N 41°28' E 028°54'0 0.4
2017-Oct-20 23:00N 41°28' E 028°54'0 0.3
2017-Oct-20 22:29N 41°28' E 028°54'1 0.3
2017-Oct-20 19:38N 41°27' E 028°55'0 0.4
2017-Oct-20 19:28N 41°27' E 028°55'1 1.2
2017-Oct-20 18:21N 41°28' E 028°56'2 6.7
2017-Oct-20 18:00N 41°27' E 028°60'612.2
2017-Oct-20 17:30N 41°26' E 029°07'510.4
2017-Oct-20 17:00N 41°23' E 029°14'2 3.2
2017-Oct-20 16:30N 41°22' E 029°15'0 0.7
2017-Oct-20 15:59N 41°22' E 029°15'0 0.8
2017-Oct-20 15:30N 41°23' E 029°15'0 0.8
2017-Oct-20 15:00N 41°23' E 029°15'1 0.8
2017-Oct-20 14:00N 41°24' E 029°15'0 1.0
2017-Oct-20 13:30N 41°25' E 029°15'1 1.0
2017-Oct-20 13:00N 41°25' E 029°14'0 1.0
2017-Oct-20 12:30N 41°25' E 029°14'0 1.0
2017-Oct-20 12:00N 41°26' E 029°14'0 1.0
2017-Oct-20 11:30N 41°26' E 029°14'0 1.0
2017-Oct-20 11:00N 41°27' E 029°13'0 0.9
2017-Oct-20 10:30N 41°27' E 029°13'0 0.8
2017-Oct-20 09:59N 41°28' E 029°13'0 0.7
2017-Oct-20 09:28N 41°28' E 029°13'0 0.7
2017-Oct-20 08:58N 41°28' E 029°12'0 0.9
2017-Oct-20 08:30N 41°28' E 029°12'0 1.0
2017-Oct-20 08:00N 41°28' E 029°11'4 8.4
2017-Oct-20 07:30N 41°28' E 029°17'612.2
2017-Oct-20 07:00N 41°30' E 029°25'612.0
2017-Oct-20 06:30N 41°32' E 029°32'611.6
2017-Oct-20 06:00N 41°35' E 029°39'611.7
2017-Oct-20 05:29N 41°37' E 029°47'711.8
2017-Oct-20 04:54N 41°40' E 029°55'512.2
2017-Oct-20 04:30N 41°43' E 030°00'612.2
2017-Oct-20 03:59N 41°46' E 030°08'612.0
2017-Oct-20 03:30N 41°48' E 030°15'612.4
2017-Oct-20 02:59N 41°50' E 030°23'612.0
2017-Oct-20 02:30N 41°53' E 030°30'611.5
2017-Oct-20 01:57N 41°56' E 030°38'511.6
2017-Oct-20 01:30N 41°58' E 030°44'611.9
2017-Oct-20 01:00N 42°00' E 030°51'611.7
2017-Oct-20 00:29N 42°03' E 030°59'611.9
2017-Oct-20 00:00N 42°05' E 031°06'612.1
2017-Oct-19 23:30N 42°08' E 031°13'612.3
2017-Oct-19 23:00N 42°10' E 031°21'612.5
2017-Oct-19 22:30N 42°13' E 031°28'612.6
2017-Oct-19 22:00N 42°16' E 031°36'612.7
2017-Oct-19 21:30N 42°18' E 031°44'612.8
2017-Oct-19 21:00N 42°21' E 031°51'612.7
2017-Oct-19 20:30N 42°24' E 031°59'612.6
2017-Oct-19 20:00N 42°27' E 032°07'612.6
2017-Oct-19 19:30N 42°29' E 032°15'612.6
2017-Oct-19 19:00N 42°32' E 032°22'2112.4
2017-Oct-19 17:20N 42°42' E 032°48'612.4
2017-Oct-19 16:52N 42°43' E 032°55'712.5
2017-Oct-19 16:17N 42°47' E 033°04'412.5
2017-Oct-19 15:59N 42°48' E 033°08'  
2017-Oct-16 16:49N 44°28' E 037°25'2 1.0
2017-Oct-16 14:51N 44°27' E 037°26'1 1.3
2017-Oct-16 14:18N 44°27' E 037°25'1 1.3
2017-Oct-16 13:19N 44°27' E 037°24'0 1.4
2017-Oct-16 12:58N 44°27' E 037°23'1 1.5
2017-Oct-16 12:25N 44°28' E 037°22'  
Track history (hours):
 
Tides and Currents Weather Stations Pressure Air Temp Water Temp Dewpoint Dewpoint Depression Visibility Wind Speed Wind Dir Waves Ship Positions

Uacc Mansder

Last reported at 2017-Oct-22 08:56 UTC. Time now 2017-Oct-22 15:45 UTC.
Position N 39°45' E 025°45'.

Length 183 m; draft 11 m.

Type: Ship (hazmat cat B). MMSI: 538003850.

Date/timePositionNaut miles runAvg speedWind from/ knotsBaromVisibWave heightAir tempDewpointWater temp
2017-Oct-22 08:56N 39°45' E 025°45'512.5
2017-Oct-22 08:30N 39°50' E 025°46'1013.0
2017-Oct-22 07:45N 39°58' E 025°54'4711.1
2017-Oct-22 03:31N 40°26' E 026°44'5 7.9
2017-Oct-22 02:53N 40°28' E 026°50'912.0
2017-Oct-22 02:09N 40°32' E 027°00'212.1
2017-Oct-22 02:00N 40°33' E 027°02'6612.2
2017-Oct-21 20:35N 40°51' E 028°26'212.2
2017-Oct-21 20:25N 40°52' E 028°29'512.1
2017-Oct-21 19:59N 40°53' E 028°35'1212.3
2017-Oct-21 19:00N 40°55' E 028°51'3 6.1
2017-Oct-21 18:26N 40°57' E 028°55'2 3.9
2017-Oct-21 18:00N 40°58' E 028°57'31 1.8
2017-Oct-21 00:48N 41°29' E 028°53'0 0.3
2017-Oct-21 00:29N 41°28' E 028°53'0 0.3
2017-Oct-21 00:00N 41°28' E 028°53'0 0.4
2017-Oct-20 23:30N 41°28' E 028°54'0 0.4
2017-Oct-20 23:00N 41°28' E 028°54'0 0.3
2017-Oct-20 22:29N 41°28' E 028°54'1 0.3
2017-Oct-20 19:38N 41°27' E 028°55'0 0.4
2017-Oct-20 19:28N 41°27' E 028°55'1 1.2
2017-Oct-20 18:21N 41°28' E 028°56'2 6.7
2017-Oct-20 18:00N 41°27' E 028°60'612.2
2017-Oct-20 17:30N 41°26' E 029°07'510.4
2017-Oct-20 17:00N 41°23' E 029°14'2 3.2
2017-Oct-20 16:30N 41°22' E 029°15'0 0.7
2017-Oct-20 15:59N 41°22' E 029°15'0 0.8
2017-Oct-20 15:30N 41°23' E 029°15'0 0.8
2017-Oct-20 15:00N 41°23' E 029°15'1 0.8
2017-Oct-20 14:00N 41°24' E 029°15'0 1.0
2017-Oct-20 13:30N 41°25' E 029°15'1 1.0
2017-Oct-20 13:00N 41°25' E 029°14'0 1.0
2017-Oct-20 12:30N 41°25' E 029°14'0 1.0
2017-Oct-20 12:00N 41°26' E 029°14'0 1.0
2017-Oct-20 11:30N 41°26' E 029°14'0 1.0
2017-Oct-20 11:00N 41°27' E 029°13'0 0.9
2017-Oct-20 10:30N 41°27' E 029°13'0 0.8
2017-Oct-20 09:59N 41°28' E 029°13'0 0.7
2017-Oct-20 09:28N 41°28' E 029°13'0 0.7
2017-Oct-20 08:58N 41°28' E 029°12'0 0.9
2017-Oct-20 08:30N 41°28' E 029°12'0 1.0
2017-Oct-20 08:00N 41°28' E 029°11'4 8.4
2017-Oct-20 07:30N 41°28' E 029°17'612.2
2017-Oct-20 07:00N 41°30' E 029°25'612.0
2017-Oct-20 06:30N 41°32' E 029°32'611.6
2017-Oct-20 06:00N 41°35' E 029°39'611.7
2017-Oct-20 05:29N 41°37' E 029°47'711.8
2017-Oct-20 04:54N 41°40' E 029°55'512.2
2017-Oct-20 04:30N 41°43' E 030°00'612.2
2017-Oct-20 03:59N 41°46' E 030°08'612.0
2017-Oct-20 03:30N 41°48' E 030°15'612.4
2017-Oct-20 02:59N 41°50' E 030°23'612.0
2017-Oct-20 02:30N 41°53' E 030°30'611.5
2017-Oct-20 01:57N 41°56' E 030°38'511.6
2017-Oct-20 01:30N 41°58' E 030°44'611.9
2017-Oct-20 01:00N 42°00' E 030°51'611.7
2017-Oct-20 00:29N 42°03' E 030°59'611.9
2017-Oct-20 00:00N 42°05' E 031°06'612.1
2017-Oct-19 23:30N 42°08' E 031°13'612.3
2017-Oct-19 23:00N 42°10' E 031°21'612.5
2017-Oct-19 22:30N 42°13' E 031°28'612.6
2017-Oct-19 22:00N 42°16' E 031°36'612.7
2017-Oct-19 21:30N 42°18' E 031°44'612.8
2017-Oct-19 21:00N 42°21' E 031°51'612.7
2017-Oct-19 20:30N 42°24' E 031°59'612.6
2017-Oct-19 20:00N 42°27' E 032°07'612.6
2017-Oct-19 19:30N 42°29' E 032°15'612.6
2017-Oct-19 19:00N 42°32' E 032°22'2112.4
2017-Oct-19 17:20N 42°42' E 032°48'612.4
2017-Oct-19 16:52N 42°43' E 032°55'712.5
2017-Oct-19 16:17N 42°47' E 033°04'412.5
2017-Oct-19 15:59N 42°48' E 033°08'  
2017-Oct-16 16:49N 44°28' E 037°25'2 1.0
2017-Oct-16 14:51N 44°27' E 037°26'1 1.3
2017-Oct-16 14:18N 44°27' E 037°25'1 1.3
2017-Oct-16 13:19N 44°27' E 037°24'0 1.4
2017-Oct-16 12:58N 44°27' E 037°23'1 1.5
2017-Oct-16 12:25N 44°28' E 037°22'  

Dump ship's entire track history